createdAt,value
2019-02-17T00:01:25.218Z,3.84
2019-02-17T00:03:53.565Z,3.84
2019-02-17T00:06:21.876Z,3.75
2019-02-17T00:08:50.223Z,3.82
2019-02-17T00:11:18.565Z,3.72
2019-02-17T00:13:46.929Z,3.64
2019-02-17T00:16:15.380Z,3.66
2019-02-17T00:18:43.701Z,3.69
2019-02-17T00:21:12.503Z,3.52
2019-02-17T00:23:41.352Z,3.40
2019-02-17T00:26:09.786Z,3.31
2019-02-17T00:28:38.169Z,3.27
2019-02-17T00:31:06.527Z,3.18
2019-02-17T00:33:34.972Z,3.22
2019-02-17T00:36:03.350Z,3.26
2019-02-17T00:38:31.818Z,3.32
2019-02-17T00:41:00.101Z,3.25
2019-02-17T00:43:28.646Z,3.24
2019-02-17T00:45:57.165Z,3.16
2019-02-17T00:48:25.469Z,3.13
2019-02-17T00:50:53.835Z,3.10
2019-02-17T00:53:22.155Z,3.11
2019-02-17T00:55:50.521Z,3.06
2019-02-17T00:58:19.522Z,3.07
2019-02-17T01:00:47.957Z,3.02
2019-02-17T01:03:16.273Z,2.97
2019-02-17T01:05:44.820Z,2.94
2019-02-17T01:08:13.414Z,2.98
2019-02-17T01:10:42.613Z,2.96
2019-02-17T01:13:11.443Z,2.90
2019-02-17T01:15:39.784Z,2.97
2019-02-17T01:18:08.111Z,2.87
2019-02-17T01:20:36.519Z,2.97
2019-02-17T01:23:04.835Z,2.84
2019-02-17T01:25:33.198Z,2.85
2019-02-17T01:28:01.554Z,2.77
2019-02-17T01:30:29.930Z,2.79
2019-02-17T01:32:58.662Z,2.66
2019-02-17T01:35:26.985Z,2.73
2019-02-17T01:37:55.326Z,2.80
2019-02-17T01:40:23.685Z,2.69
2019-02-17T01:42:52.034Z,2.65
2019-02-17T01:45:20.363Z,2.67
2019-02-17T01:47:48.829Z,2.65
2019-02-17T01:50:17.372Z,2.60
2019-02-17T01:52:45.734Z,2.67
2019-02-17T01:55:15.034Z,2.61
2019-02-17T01:57:43.529Z,2.67
2019-02-17T02:00:13.811Z,2.64
2019-02-17T02:02:42.179Z,2.59
2019-02-17T02:05:11.170Z,2.48
2019-02-17T02:07:39.588Z,2.39
2019-02-17T02:10:09.334Z,2.43
2019-02-17T02:12:37.812Z,2.43
2019-02-17T02:15:07.825Z,2.37
2019-02-17T02:17:36.193Z,2.29
2019-02-17T02:20:07.879Z,2.24
2019-02-17T02:22:36.229Z,2.23
2019-02-17T02:25:06.408Z,2.23
2019-02-17T02:27:35.097Z,2.28
2019-02-17T02:30:04.609Z,2.25
2019-02-17T02:32:33.028Z,2.19
2019-02-17T02:35:01.375Z,2.20
2019-02-17T02:37:29.703Z,2.23
2019-02-17T02:39:58.048Z,2.27
2019-02-17T02:42:26.389Z,2.18
2019-02-17T02:44:54.746Z,2.18
2019-02-17T02:47:23.086Z,2.32
2019-02-17T02:49:51.436Z,2.27
2019-02-17T02:52:19.741Z,2.20
2019-02-17T02:54:48.126Z,2.21
2019-02-17T02:57:16.452Z,2.34
2019-02-17T02:59:52.216Z,2.22
2019-02-17T03:02:15.149Z,2.27
2019-02-17T03:04:43.489Z,2.16
2019-02-17T03:07:12.081Z,2.14
2019-02-17T03:09:40.426Z,2.13
2019-02-17T03:12:08.879Z,2.13
2019-02-17T03:14:37.252Z,2.09
2019-02-17T03:17:05.602Z,2.04
2019-02-17T03:19:33.957Z,1.97
2019-02-17T03:22:02.276Z,1.89
2019-02-17T03:24:30.614Z,1.98
2019-02-17T03:26:59.012Z,2.12
2019-02-17T03:29:27.473Z,2.22
2019-02-17T03:31:55.818Z,2.10
2019-02-17T03:34:24.223Z,2.08
2019-02-17T03:36:53.446Z,2.06
2019-02-17T03:39:21.827Z,2.07
2019-02-17T03:41:50.310Z,2.23
2019-02-17T03:44:18.638Z,2.11
2019-02-17T03:46:46.970Z,2.18
2019-02-17T03:49:15.291Z,2.16
2019-02-17T03:51:43.699Z,2.21
2019-02-17T03:54:12.645Z,2.24
2019-02-17T03:56:40.997Z,2.25
2019-02-17T03:59:09.327Z,2.19
2019-02-17T04:01:37.687Z,2.21
2019-02-17T04:04:06.025Z,2.16
2019-02-17T04:06:34.391Z,2.10
2019-02-17T04:09:02.804Z,2.06
2019-02-17T04:11:31.292Z,1.96
2019-02-17T04:13:59.690Z,2.02
2019-02-17T04:16:28.119Z,2.04
2019-02-17T04:18:56.449Z,1.99
2019-02-17T04:21:24.884Z,1.93
2019-02-17T04:23:53.235Z,1.85
2019-02-17T04:26:21.635Z,1.77
2019-02-17T04:28:50.786Z,1.68
2019-02-17T04:31:19.219Z,1.64
2019-02-17T04:33:47.663Z,1.58
2019-02-17T04:36:15.974Z,1.55
2019-02-17T04:38:44.527Z,1.52
2019-02-17T04:41:13.125Z,1.55
2019-02-17T04:43:41.455Z,1.50
2019-02-17T04:46:10.199Z,1.54
2019-02-17T04:48:38.575Z,1.60
2019-02-17T04:51:06.969Z,1.62
2019-02-17T04:53:35.349Z,1.57
2019-02-17T04:56:03.680Z,1.58
2019-02-17T04:58:32.100Z,1.58
2019-02-17T05:01:00.473Z,1.57
2019-02-17T05:03:30.037Z,1.53
2019-02-17T05:05:58.397Z,1.54
2019-02-17T05:08:26.744Z,1.54
2019-02-17T05:10:55.083Z,1.54
2019-02-17T05:13:23.788Z,1.66
2019-02-17T05:15:52.139Z,1.70
2019-02-17T05:18:20.462Z,1.60
2019-02-17T05:20:48.817Z,1.59
2019-02-17T05:23:17.138Z,1.60
2019-02-17T05:25:45.527Z,1.62
2019-02-17T05:28:14.058Z,1.63
2019-02-17T05:30:52.339Z,1.71
2019-02-17T05:33:13.135Z,1.79
2019-02-17T05:35:41.465Z,1.70
2019-02-17T05:38:09.927Z,1.57
2019-02-17T05:40:38.250Z,1.49
2019-02-17T05:43:06.587Z,1.33
2019-02-17T05:45:34.942Z,1.35
2019-02-17T05:48:03.427Z,1.26
2019-02-17T05:50:31.791Z,1.33
2019-02-17T05:53:00.158Z,1.35
2019-02-17T05:55:28.507Z,1.54
2019-02-17T05:57:56.839Z,1.56
2019-02-17T06:00:26.097Z,1.69
2019-02-17T06:02:54.451Z,1.62
2019-02-17T06:05:22.808Z,1.48
2019-02-17T06:07:51.155Z,1.44
2019-02-17T06:10:19.546Z,1.39
2019-02-17T06:12:48.328Z,1.39
2019-02-17T06:15:16.698Z,1.52
2019-02-17T06:17:45.015Z,1.56
2019-02-17T06:20:13.800Z,1.59
2019-02-17T06:22:42.141Z,1.58
2019-02-17T06:25:11.180Z,1.64
2019-02-17T06:27:39.521Z,1.78
2019-02-17T06:30:09.391Z,1.91
2019-02-17T06:32:37.725Z,1.97
2019-02-17T06:35:06.863Z,1.74
2019-02-17T06:37:35.190Z,1.54
2019-02-17T06:40:04.882Z,1.47
2019-02-17T06:42:33.264Z,1.45
2019-02-17T06:45:01.664Z,1.41
2019-02-17T06:47:31.024Z,1.79
2019-02-17T06:49:59.326Z,2.09
2019-02-17T06:52:27.705Z,2.42
2019-02-17T06:55:03.241Z,2.93
2019-02-17T06:57:33.579Z,3.16
2019-02-17T07:00:05.519Z,3.56
2019-02-17T07:02:33.882Z,3.39
2019-02-17T07:05:06.068Z,3.88
2019-02-17T07:07:34.485Z,3.96
2019-02-17T07:10:04.474Z,4.27
2019-02-17T07:12:32.813Z,4.08
2019-02-17T07:15:01.166Z,3.89
2019-02-17T07:17:29.533Z,3.96
2019-02-17T07:19:57.882Z,3.99
2019-02-17T07:22:26.227Z,3.80
2019-02-17T07:24:54.593Z,3.46
2019-02-17T07:27:22.991Z,4.14
2019-02-17T07:29:51.321Z,4.57
2019-02-17T07:32:19.680Z,5.13
2019-02-17T07:34:48.026Z,5.48
2019-02-17T07:37:16.367Z,5.49
2019-02-17T07:39:44.716Z,5.19
2019-02-17T07:42:13.110Z,4.56
2019-02-17T07:44:41.519Z,4.39
2019-02-17T07:47:09.896Z,4.42
2019-02-17T07:49:38.229Z,4.33
2019-02-17T07:52:06.796Z,4.35
2019-02-17T07:54:35.118Z,4.24
2019-02-17T07:57:03.505Z,4.48
2019-02-17T07:59:31.892Z,4.97
2019-02-17T08:02:00.285Z,5.02
2019-02-17T08:04:28.596Z,4.65
2019-02-17T08:06:56.974Z,5.02
2019-02-17T08:09:25.305Z,5.26
2019-02-17T08:11:53.697Z,5.09
2019-02-17T08:14:22.044Z,5.17
2019-02-17T08:16:50.413Z,5.31
2019-02-17T08:19:18.741Z,5.61
2019-02-17T08:21:47.114Z,5.90
2019-02-17T08:24:15.466Z,6.20
2019-02-17T08:26:43.829Z,6.21
2019-02-17T08:29:12.186Z,6.07
2019-02-17T08:31:40.565Z,5.75
2019-02-17T08:34:09.173Z,5.64
2019-02-17T08:36:37.552Z,5.47
2019-02-17T08:39:06.432Z,5.19
2019-02-17T08:41:34.764Z,5.62
2019-02-17T08:44:03.061Z,5.32
2019-02-17T08:46:31.437Z,5.08
2019-02-17T08:48:59.811Z,5.00
2019-02-17T08:51:28.162Z,4.82
2019-02-17T08:53:56.487Z,4.90
2019-02-17T08:56:24.984Z,5.21
2019-02-17T08:58:53.274Z,5.51
2019-02-17T09:01:21.649Z,5.30
2019-02-17T09:03:49.983Z,5.27
2019-02-17T09:06:18.340Z,5.63
2019-02-17T09:08:46.695Z,4.91
2019-02-17T09:11:15.345Z,5.71
2019-02-17T09:13:43.720Z,5.41
2019-02-17T09:16:12.057Z,5.48
2019-02-17T09:18:41.022Z,5.05
2019-02-17T09:21:09.455Z,5.13
2019-02-17T09:23:37.809Z,5.48
2019-02-17T09:26:06.173Z,5.50
2019-02-17T09:28:34.550Z,5.83
2019-02-17T09:31:03.109Z,5.89
2019-02-17T09:33:31.486Z,6.00
2019-02-17T09:35:59.877Z,6.29
2019-02-17T09:38:28.230Z,5.80
2019-02-17T09:40:56.561Z,6.29
2019-02-17T09:43:24.901Z,5.85
2019-02-17T09:45:53.450Z,5.94
2019-02-17T09:48:21.809Z,6.23
2019-02-17T09:50:50.201Z,6.40
2019-02-17T09:53:18.526Z,6.32
2019-02-17T09:55:46.992Z,6.61
2019-02-17T09:58:15.444Z,6.67
2019-02-17T10:00:43.798Z,6.20
2019-02-17T10:03:12.320Z,6.72
2019-02-17T10:05:40.722Z,6.91
2019-02-17T10:08:09.462Z,6.84
2019-02-17T10:10:37.791Z,7.02
2019-02-17T10:13:06.326Z,7.36
2019-02-17T10:15:34.713Z,7.54
2019-02-17T10:18:03.090Z,7.23
2019-02-17T10:20:31.432Z,7.04
2019-02-17T10:22:59.808Z,7.29
2019-02-17T10:25:28.134Z,7.63
2019-02-17T10:27:56.476Z,7.61
2019-02-17T10:30:24.806Z,7.67
2019-02-17T10:32:53.207Z,7.74
2019-02-17T10:35:21.526Z,7.76
2019-02-17T10:37:49.950Z,7.67
2019-02-17T10:40:19.325Z,8.03
2019-02-17T10:42:48.077Z,8.39
2019-02-17T10:45:16.497Z,8.58
2019-02-17T10:47:44.852Z,8.90
2019-02-17T10:50:13.501Z,8.83
2019-02-17T10:52:42.076Z,9.11
2019-02-17T10:55:12.245Z,8.81
2019-02-17T10:57:40.662Z,9.26
2019-02-17T11:00:14.730Z,9.47
2019-02-17T11:02:47.274Z,9.41
2019-02-17T11:05:13.655Z,9.17
2019-02-17T11:07:42.176Z,9.14
2019-02-17T11:10:11.610Z,9.36
2019-02-17T11:12:40.020Z,9.72
2019-02-17T11:15:14.685Z,9.91
2019-02-17T11:17:43.022Z,10.06
2019-02-17T11:20:11.646Z,9.92
2019-02-17T11:22:40.097Z,10.11
2019-02-17T11:25:09.573Z,10.34
2019-02-17T11:27:37.912Z,10.45
2019-02-17T11:30:11.242Z,10.64
2019-02-17T11:32:39.598Z,10.71
2019-02-17T11:35:08.810Z,10.82
2019-02-17T11:37:37.128Z,10.75
2019-02-17T11:40:07.958Z,10.80
2019-02-17T11:42:36.349Z,11.10
2019-02-17T11:45:08.932Z,10.86
2019-02-17T11:47:37.256Z,11.07
2019-02-17T11:50:07.805Z,11.25
2019-02-17T11:52:36.203Z,11.28
2019-02-17T11:55:07.481Z,11.20
2019-02-17T11:57:35.817Z,11.26
2019-02-17T12:00:09.685Z,11.40
2019-02-17T12:02:38.012Z,11.44
2019-02-17T12:05:08.668Z,11.51
2019-02-17T12:07:36.987Z,11.70
2019-02-17T12:10:08.757Z,11.67
2019-02-17T12:12:37.146Z,11.81
2019-02-17T12:15:08.999Z,11.92
2019-02-17T12:17:37.322Z,12.01
2019-02-17T12:20:16.868Z,12.15
2019-02-17T12:22:45.477Z,12.22
2019-02-17T12:25:13.929Z,12.23
2019-02-17T12:27:42.684Z,12.22
2019-02-17T12:30:11.977Z,12.31
2019-02-17T12:32:40.331Z,12.39
2019-02-17T12:35:09.665Z,12.40
2019-02-17T12:37:37.978Z,12.41
2019-02-17T12:40:09.610Z,12.37
2019-02-17T12:42:37.918Z,12.47
2019-02-17T12:45:10.815Z,12.54
2019-02-17T12:47:39.230Z,12.57
2019-02-17T12:50:10.652Z,12.63
2019-02-17T12:52:46.755Z,12.54
2019-02-17T12:55:10.282Z,12.52
2019-02-17T12:57:39.197Z,12.77
2019-02-17T13:00:12.542Z,12.86
2019-02-17T13:02:40.910Z,12.88
2019-02-17T13:05:10.270Z,13.00
2019-02-17T13:07:38.664Z,13.19
2019-02-17T13:10:09.068Z,13.33
2019-02-17T13:12:37.414Z,13.41
2019-02-17T13:15:08.336Z,13.21
2019-02-17T13:17:36.685Z,13.31
2019-02-17T13:20:09.123Z,13.45
2019-02-17T13:22:37.452Z,13.57
2019-02-17T13:25:09.112Z,13.65
2019-02-17T13:27:37.525Z,13.61
2019-02-17T13:30:11.646Z,13.52
2019-02-17T13:32:40.026Z,13.35
2019-02-17T13:35:09.146Z,13.54
2019-02-17T13:37:37.731Z,13.66
2019-02-17T13:40:09.677Z,13.75
2019-02-17T13:42:38.096Z,13.80
2019-02-17T13:45:12.181Z,13.90
2019-02-17T13:47:40.629Z,13.91
2019-02-17T13:50:12.227Z,13.90
2019-02-17T13:52:40.593Z,13.80
2019-02-17T13:55:10.365Z,13.81
2019-02-17T13:57:38.780Z,13.90
2019-02-17T14:00:11.953Z,13.77
2019-02-17T14:02:40.309Z,13.90
2019-02-17T14:05:09.581Z,13.78
2019-02-17T14:07:37.905Z,13.95
2019-02-17T14:10:09.852Z,14.06
2019-02-17T14:12:38.352Z,14.13
2019-02-17T14:15:12.795Z,14.16
2019-02-17T14:17:41.134Z,14.10
2019-02-17T14:20:10.549Z,14.10
2019-02-17T14:22:39.133Z,14.06
2019-02-17T14:25:10.998Z,14.09
2019-02-17T14:27:39.915Z,14.18
2019-02-17T14:30:12.783Z,14.15
2019-02-17T14:32:41.240Z,14.13
2019-02-17T14:35:10.227Z,14.22
2019-02-17T14:37:38.633Z,14.15
2019-02-17T14:40:09.329Z,14.23
2019-02-17T14:42:37.705Z,14.23
2019-02-17T14:45:10.632Z,14.24
2019-02-17T14:47:38.994Z,14.15
2019-02-17T14:50:08.870Z,14.20
2019-02-17T14:52:37.226Z,14.15
2019-02-17T14:55:08.283Z,14.13
2019-02-17T14:57:36.633Z,14.09
2019-02-17T15:00:10.748Z,13.98
2019-02-17T15:02:39.140Z,14.00
2019-02-17T15:05:09.418Z,13.96
2019-02-17T15:07:37.850Z,13.93
2019-02-17T15:10:10.094Z,13.85
2019-02-17T15:12:38.453Z,13.74
2019-02-17T15:15:10.033Z,13.79
2019-02-17T15:17:38.406Z,13.80
2019-02-17T15:20:09.487Z,13.70
2019-02-17T15:22:37.829Z,13.61
2019-02-17T15:25:09.174Z,13.55
2019-02-17T15:27:37.503Z,13.46
2019-02-17T15:30:10.333Z,13.40
2019-02-17T15:32:38.684Z,13.66
2019-02-17T15:35:07.450Z,13.98
2019-02-17T15:37:35.767Z,13.92
2019-02-17T15:40:07.958Z,13.76
2019-02-17T15:42:36.292Z,13.53
2019-02-17T15:45:08.647Z,13.41
2019-02-17T15:47:37.007Z,13.19
2019-02-17T15:50:08.499Z,13.07
2019-02-17T15:52:36.830Z,13.26
2019-02-17T15:55:08.554Z,13.22
2019-02-17T15:57:36.973Z,12.98
2019-02-17T16:00:08.471Z,12.88
2019-02-17T16:02:36.804Z,12.73
2019-02-17T16:05:06.749Z,12.51
2019-02-17T16:07:35.061Z,12.32
2019-02-17T16:10:08.542Z,12.27
2019-02-17T16:12:37.105Z,12.10
2019-02-17T16:15:10.780Z,12.05
2019-02-17T16:17:39.135Z,12.01
2019-02-17T16:20:10.850Z,11.90
2019-02-17T16:22:39.945Z,11.75
2019-02-17T16:25:09.775Z,11.63
2019-02-17T16:27:38.199Z,11.64
2019-02-17T16:30:10.453Z,11.69
2019-02-17T16:32:38.776Z,11.56
2019-02-17T16:35:07.770Z,11.35
2019-02-17T16:37:36.145Z,11.19
2019-02-17T16:40:06.997Z,11.05
2019-02-17T16:42:35.358Z,10.99
2019-02-17T16:45:05.509Z,10.96
2019-02-17T16:47:33.859Z,10.90
2019-02-17T16:50:02.228Z,11.06
2019-02-17T16:52:30.663Z,11.20
2019-02-17T16:54:59.063Z,11.21
2019-02-17T16:57:27.389Z,11.24
2019-02-17T16:59:55.794Z,11.27
2019-02-17T17:02:24.335Z,11.21
2019-02-17T17:04:52.715Z,11.20
2019-02-17T17:07:21.062Z,11.15
2019-02-17T17:09:49.426Z,11.07
2019-02-17T17:12:17.746Z,10.89
2019-02-17T17:14:46.120Z,10.70
2019-02-17T17:17:14.694Z,10.58
2019-02-17T17:19:43.298Z,10.48
2019-02-17T17:22:11.721Z,10.51
2019-02-17T17:24:40.346Z,10.52
2019-02-17T17:27:09.330Z,10.55
2019-02-17T17:29:37.813Z,10.56
2019-02-17T17:32:06.275Z,10.48
2019-02-17T17:34:34.754Z,10.33
2019-02-17T17:37:03.177Z,10.20
2019-02-17T17:39:31.665Z,10.07
2019-02-17T17:42:00.137Z,10.07
2019-02-17T17:44:28.765Z,10.01
2019-02-17T17:46:57.735Z,9.93
2019-02-17T17:49:26.275Z,9.77
2019-02-17T17:51:54.637Z,9.68
2019-02-17T17:54:25.697Z,9.65
2019-02-17T17:56:54.360Z,9.56
2019-02-17T17:59:22.930Z,9.54
2019-02-17T18:01:51.293Z,9.50
2019-02-17T18:04:19.673Z,9.42
2019-02-17T18:06:48.118Z,9.25
2019-02-17T18:09:16.458Z,9.06
2019-02-17T18:11:44.815Z,8.86
2019-02-17T18:14:13.898Z,8.73
2019-02-17T18:16:42.233Z,8.62
2019-02-17T18:19:10.967Z,8.56
2019-02-17T18:21:39.339Z,8.55
2019-02-17T18:24:07.645Z,8.49
2019-02-17T18:26:35.997Z,8.46
2019-02-17T18:29:04.535Z,8.42
2019-02-17T18:31:32.903Z,8.37
2019-02-17T18:34:01.249Z,8.35
2019-02-17T18:36:29.606Z,8.38
2019-02-17T18:38:57.953Z,8.33
2019-02-17T18:41:26.310Z,8.31
2019-02-17T18:43:54.661Z,8.19
2019-02-17T18:46:23.010Z,8.23
2019-02-17T18:48:51.381Z,8.24
2019-02-17T18:51:19.725Z,8.31
2019-02-17T18:53:48.145Z,8.20
2019-02-17T18:56:42.445Z,8.47
2019-02-17T18:59:11.137Z,8.48
2019-02-17T19:01:39.520Z,8.19
2019-02-17T19:04:08.042Z,8.20
2019-02-17T19:06:36.402Z,8.10
2019-02-17T19:09:06.242Z,7.97
2019-02-17T19:11:34.588Z,7.96
2019-02-17T19:14:02.909Z,7.86
2019-02-17T19:16:31.328Z,7.79
2019-02-17T19:18:59.707Z,7.71
2019-02-17T19:21:28.121Z,7.76
2019-02-17T19:23:56.482Z,7.66
2019-02-17T19:26:24.959Z,7.62
2019-02-17T19:28:53.353Z,7.66
2019-02-17T19:31:21.696Z,7.63
2019-02-17T19:33:50.126Z,7.55
2019-02-17T19:36:18.514Z,7.44
2019-02-17T19:38:47.204Z,7.40
2019-02-17T19:41:15.531Z,7.35
2019-02-17T19:43:43.912Z,7.48
2019-02-17T19:46:12.383Z,7.42
2019-02-17T19:48:40.730Z,7.41
2019-02-17T19:51:09.170Z,7.44
2019-02-17T19:53:37.529Z,7.36
2019-02-17T19:56:07.517Z,7.32
2019-02-17T19:58:36.114Z,7.36
2019-02-17T20:01:04.481Z,7.47
2019-02-17T20:03:36.138Z,7.41
2019-02-17T20:06:12.431Z,7.50
2019-02-17T20:08:41.386Z,7.30
2019-02-17T20:11:11.385Z,7.40
2019-02-17T20:13:39.905Z,7.47
2019-02-17T20:16:08.245Z,7.43
2019-02-17T20:18:37.001Z,7.20
2019-02-17T20:21:05.343Z,7.13
2019-02-17T20:23:33.886Z,7.11
2019-02-17T20:26:02.741Z,7.09
2019-02-17T20:28:40.831Z,7.03
2019-02-17T20:31:01.413Z,7.19
2019-02-17T20:33:29.731Z,7.24
2019-02-17T20:36:02.650Z,7.23
2019-02-17T20:38:28.696Z,6.97
2019-02-17T20:40:57.079Z,6.83
2019-02-17T20:43:25.407Z,6.78
2019-02-17T20:45:53.769Z,6.87
2019-02-17T20:48:22.196Z,6.90
2019-02-17T20:50:50.567Z,6.74
2019-02-17T20:53:19.003Z,6.78
2019-02-17T20:55:47.403Z,6.74
2019-02-17T20:58:15.779Z,6.64
2019-02-17T21:00:44.482Z,6.53
2019-02-17T21:03:13.351Z,6.46
2019-02-17T21:05:41.753Z,6.38
2019-02-17T21:08:11.518Z,6.31
2019-02-17T21:10:39.888Z,6.20
2019-02-17T21:13:10.708Z,6.09
2019-02-17T21:15:40.683Z,6.17
2019-02-17T21:18:09.584Z,6.06
2019-02-17T21:20:39.365Z,6.09
2019-02-17T21:23:07.773Z,6.04
2019-02-17T21:25:36.122Z,5.88
2019-02-17T21:28:04.472Z,5.94
2019-02-17T21:30:32.845Z,5.89
2019-02-17T21:33:01.219Z,5.86
2019-02-17T21:35:29.553Z,5.86
2019-02-17T21:37:57.995Z,5.89
2019-02-17T21:40:26.396Z,5.86
2019-02-17T21:42:54.761Z,6.01
2019-02-17T21:45:23.167Z,6.00
2019-02-17T21:47:51.518Z,5.98
2019-02-17T21:50:19.866Z,5.89
2019-02-17T21:52:48.249Z,6.03
2019-02-17T21:55:16.654Z,6.12
2019-02-17T21:57:45.085Z,5.97
2019-02-17T22:00:18.203Z,5.98
2019-02-17T22:02:46.624Z,6.14
2019-02-17T22:05:15.546Z,6.01
2019-02-17T22:07:44.021Z,5.92
2019-02-17T22:10:14.460Z,5.98
2019-02-17T22:12:42.768Z,5.91
2019-02-17T22:15:15.696Z,5.79
2019-02-17T22:17:44.073Z,6.00
2019-02-17T22:20:13.606Z,6.04
2019-02-17T22:22:42.042Z,5.98
2019-02-17T22:25:11.004Z,5.87
2019-02-17T22:27:39.371Z,5.78
2019-02-17T22:30:10.988Z,5.73
2019-02-17T22:32:39.371Z,5.75
2019-02-17T22:35:07.730Z,5.62
2019-02-17T22:37:36.170Z,5.49
2019-02-17T22:40:06.775Z,5.46
2019-02-17T22:42:35.094Z,5.59
2019-02-17T22:45:05.245Z,5.61
2019-02-17T22:47:33.607Z,5.67
2019-02-17T22:50:02.031Z,5.59
2019-02-17T22:52:30.726Z,5.54
2019-02-17T22:54:59.094Z,5.44
2019-02-17T22:57:27.402Z,5.38
2019-02-17T22:59:55.785Z,5.38
2019-02-17T23:02:24.210Z,5.33
2019-02-17T23:04:52.600Z,5.25
2019-02-17T23:07:20.923Z,5.11
2019-02-17T23:09:49.284Z,5.01
2019-02-17T23:12:17.668Z,4.84
2019-02-17T23:14:46.023Z,4.68
2019-02-17T23:17:14.409Z,4.63
2019-02-17T23:19:42.770Z,4.54
2019-02-17T23:22:11.466Z,4.56
2019-02-17T23:24:39.888Z,4.44
2019-02-17T23:27:08.215Z,4.48
2019-02-17T23:29:36.582Z,4.45
2019-02-17T23:32:04.902Z,4.47
2019-02-17T23:34:33.247Z,4.50
2019-02-17T23:37:04.092Z,4.49
2019-02-17T23:39:31.977Z,4.41
2019-02-17T23:42:00.337Z,4.36
2019-02-17T23:44:28.679Z,4.32
2019-02-17T23:46:57.023Z,4.35
2019-02-17T23:49:25.358Z,4.41
2019-02-17T23:51:53.694Z,4.42
2019-02-17T23:54:22.030Z,4.35
2019-02-17T23:56:50.402Z,4.28
2019-02-17T23:59:18.753Z,4.19
